Detall de PIREP

Printer-friendly versionPDF version

[2015/04/26 07:57:00]
Flight IATA:CT0001
Pilot Number:041
Company ICAO:CAT
Aircraft Type:BE20/A
PAX:4
Departing Airport: LELC
Destination Airport: LEMH
Alternate Airport:LEPA
Online: VATSIM
Route:ALT UN851 SUMMO MITOS BRUNO IZA MJV
Flight Level:FL140
No Slew and time accel
No pause
Crash detect
Detect pilot in Cockpit between each 30 and 45 minutes
07:57 Zero fuel Weight: 8737 Lbs, Fuel Weight: 3677 Lbs
07:57 VATSIM:LELC 260600Z 28002KT 9999 FEW040 17/15 Q1010 NOSIG
07:57 VATSIM:LEMH 260630Z 20004KT 170V230 7000 BKN007 16/15 Q1011
07:57 VOICE CATALONIAN
08:02 Parking Brakes off
08:07 Take-off
08:07 Take off Weight: 12382 Lbs
08:07 Wind: 283º @ 001 Knots Heading: 224º
08:07 POS N37º 46´ 25´´ W000º 48´ 50´´
08:07 Gear Up: 134 Knots
08:07 Flaps:1 at 134 Knots
08:07 Flaps:0 at 143 Knots
08:18 TOC
08:18 Fuel Weight: 3490 Lb
08:22 Wind:267º@006 Knots Heading: 067ºGround Speed: 255 Knots Altitude 13914 ft
08:37 Wind:284º@011 Knots Heading: 066º Ground Speed: 255 Knots Altitude 13910 ft
08:52 Wind:292º@020 Knots Heading: 058º Ground Speed: 258 Knots Altitude 13914 ft
09:00 TOD
09:00 Fuel Weight: 3019 Lb
09:07 Wind:256º@008 Knots Heading: 058º Ground Speed: 242 Knots Altitude 4944 ft
09:22 Wind:336º@013 Knots Heading: 057º Ground Speed: 208 Knots Altitude 2995 ft
09:25 Flaps:1 at 172 Knots
09:26 Gear Down: 160 Knots
09:27 Flaps:2 at 142 Knots
09:29 TouchDown:Rate -68 ft/min Speed: 100 Knots
09:29 Flaps:1 at 90 Knots
09:29 Flaps:0 at 78 Knots
09:29 VATSIM:LEMH 260812Z 22007KT 160V260 7000 BKN007 17/15 Q1011
09:30 Land
09:30 Wind:214º@005 Knots
09:30 Heading: 187º
09:30 Flight Duration: 01:23
09:30 Landing Weight: 11528 Lbs
09:30 POS N39º 51´ 45´´ E004º 13´ 06´´
09:32 Parking brakes on
09:32 Block to Block Duration: 01:30
09:32 Final Fuel: 2784 Lbls
09:32 Spent Fuel: 892 Lbls
09:32 Flight Length: 313 NM
09:32 TOD Land Length: 101 NM

Exportar CSV

Powered by Drupal - Modified by Danger4k